Time;durP1;ratioP1;P1;durP2;ratioP2;P2;SDS_P1;SDS_P2;PMS_P1;PMS_P2;Temp;Humidity;BMP_temperature;BMP_pressure;BME280_temperature;BME280_humidity;BME280_pressure;Samples;Min_cycle;Max_cycle;Signal;HPM_P1;HPM_P2
2022/04/19 06:15:11;;;;;;;12.38;8.60;;;;;;;;;;10559006;28;20104;-81
2022/04/19 06:20:15;;;;;;;6.57;4.72;;;;;;;;;;10572412;28;20028;-82
2022/04/19 06:25:18;;;;;;;5.65;4.35;;;;;;;;;;10568620;28;20025;-82
2022/04/19 06:30:24;;;;;;;9.55;7.50;;;;;;;;;;10560166;28;20032;-81
2022/04/19 06:35:26;;;;;;;6.70;5.50;;;;;;;;;;10557192;28;20039;-81
2022/04/19 06:40:30;;;;;;;9.07;7.53;;;;;;;;;;10563939;28;20025;-81
2022/04/19 06:46:13;;;;;;;10.07;7.55;;;;;;;;;;10615249;27;20078;-80
2022/04/19 06:51:35;;;;;;;12.02;8.13;;;;;;;;;;10625375;28;20087;-79
2022/04/19 06:56:39;;;;;;;11.98;10.07;;;;;;;;;;10624886;27;20008;-81
2022/04/19 07:01:43;;;;;;;6.63;4.72;;;;;;;;;;10607380;28;20044;-81
2022/04/19 07:06:44;;;;;;;6.15;5.03;;;;;;;;;;10591864;28;20111;-79
2022/04/19 07:11:45;;;;;;;7.00;5.05;;;;;;;;;;10579581;28;20024;-81
2022/04/19 07:16:46;;;;;;;6.40;5.32;;;;;;;;;;10551008;28;20027;-81
2022/04/19 07:27:06;;;;;;;7.10;5.80;;;;;;;;;;10567491;28;20028;-80
2022/04/19 07:32:08;;;;;;;6.70;5.82;;;;;;;;;;10568286;28;20123;-81
2022/04/19 07:37:09;;;;;;;8.93;6.40;;;;;;;;;;10565226;28;20059;-81
2022/04/19 07:42:11;;;;;;;7.70;5.53;;;;;;;;;;10566767;28;20081;-83
2022/04/19 07:47:14;;;;;;;8.15;5.68;;;;;;;;;;10569878;28;20028;-82
2022/04/19 07:52:16;;;;;;;8.15;6.10;;;;;;;;;;10565030;28;20024;-80
2022/04/19 07:57:20;;;;;;;6.75;5.60;;;;;;;;;;10563855;28;20027;-82
2022/04/19 08:02:21;;;;;;;6.80;5.35;;;;;;;;;;10562762;28;20385;-82
2022/04/19 08:07:22;;;;;;;7.93;5.82;;;;;;;;;;10562121;28;20025;-80
2022/04/19 08:12:23;;;;;;;6.95;5.22;;;;;;;;;;10563850;28;20394;-79
2022/04/19 08:17:24;;;;;;;8.63;6.28;;;;;;;;;;10562632;28;20028;-80
2022/04/19 08:22:25;;;;;;;7.68;5.13;;;;;;;;;;10562934;28;20095;-81
2022/04/19 08:27:26;;;;;;;7.45;5.13;;;;;;;;;;10562070;28;20028;-81
2022/04/19 08:32:47;;;;;;;6.72;5.75;;;;;;;;;;10542905;28;20062;-81
2022/04/19 08:38:23;;;;;;;5.35;4.85;;;;;;;;;;10567289;28;20028;-81
2022/04/19 08:43:56;;;;;;;7.72;5.75;;;;;;;;;;10535189;28;20096;-81
2022/04/19 08:48:59;;;;;;;7.68;5.90;;;;;;;;;;10566353;28;20048;-81
2022/04/19 08:59:39;;;;;;;7.72;5.45;;;;;;;;;;10567254;28;20048;-84
2022/04/19 09:04:44;;;;;;;7.47;5.63;;;;;;;;;;10585153;28;20080;-83
2022/04/19 09:10:11;;;;;;;5.45;3.67;;;;;;;;;;10582000;27;20012;-83
2022/04/19 09:15:12;;;;;;;7.55;4.13;;;;;;;;;;10588002;27;20024;-83
2022/04/19 09:20:22;;;;;;;5.95;3.95;;;;;;;;;;10584827;28;20028;-81
2022/04/19 09:25:27;;;;;;;4.72;3.00;;;;;;;;;;10582856;28;20080;-82
2022/04/19 09:30:34;;;;;;;8.48;5.72;;;;;;;;;;10583200;22;20051;-77
2022/04/19 09:35:36;;;;;;;4.75;3.95;;;;;;;;;;10490070;28;20037;-78
2022/04/19 09:40:52;;;;;;;6.53;4.05;;;;;;;;;;10506259;28;20033;-79
2022/04/19 09:45:54;;;;;;;6.30;4.30;;;;;;;;;;10503694;28;20551;-79
2022/04/19 09:50:57;;;;;;;5.40;4.05;;;;;;;;;;10503919;28;20032;-77
2022/04/19 09:55:59;;;;;;;4.50;3.03;;;;;;;;;;10490617;28;20055;-77
2022/04/19 10:01:01;;;;;;;3.78;2.90;;;;;;;;;;10485142;28;20485;-77
2022/04/19 10:11:22;;;;;;;4.85;3.45;;;;;;;;;;10508553;28;20115;-79
2022/04/19 10:16:23;;;;;;;5.30;3.30;;;;;;;;;;10490169;28;20023;-80
2022/04/19 10:21:25;;;;;;;6.32;3.88;;;;;;;;;;10512138;28;20099;-79
2022/04/19 10:26:28;;;;;;;5.75;3.92;;;;;;;;;;10513603;28;20024;-79
2022/04/19 10:31:37;;;;;;;7.35;5.10;;;;;;;;;;10491234;28;20031;-79
2022/04/19 10:36:39;;;;;;;7.25;4.35;;;;;;;;;;10492768;28;20021;-79
2022/04/19 10:41:52;;;;;;;5.55;3.80;;;;;;;;;;10495926;28;20471;-82
2022/04/19 10:47:12;;;;;;;7.35;3.75;;;;;;;;;;10517496;28;20017;-80
2022/04/19 10:52:33;;;;;;;6.93;5.38;;;;;;;;;;10503917;28;20411;-81
2022/04/19 11:03:02;;;;;;;7.25;4.90;;;;;;;;;;10526929;28;20032;-80
2022/04/19 11:08:22;;;;;;;5.90;3.50;;;;;;;;;;10542766;28;20079;-79
2022/04/19 11:13:26;;;;;;;6.15;4.63;;;;;;;;;;10529547;28;20219;-80
2022/04/19 11:18:28;;;;;;;5.13;3.15;;;;;;;;;;10531098;28;20093;-79
2022/04/19 11:23:29;;;;;;;5.15;2.97;;;;;;;;;;10548780;28;20025;-80
2022/04/19 11:28:31;;;;;;;7.05;5.90;;;;;;;;;;10520154;28;20088;-81
2022/04/19 11:33:36;;;;;;;3.72;3.03;;;;;;;;;;10503037;28;20044;-83
2022/04/19 11:38:42;;;;;;;6.47;3.75;;;;;;;;;;10518809;28;20025;-83
2022/04/19 11:49:02;;;;;;;6.05;3.35;;;;;;;;;;10505131;28;20033;-78
2022/04/19 11:54:04;;;;;;;8.05;3.40;;;;;;;;;;10502804;28;20394;-77
2022/04/19 11:59:05;;;;;;;7.20;3.20;;;;;;;;;;10485892;28;20390;-77
2022/04/19 12:04:13;;;;;;;5.05;2.70;;;;;;;;;;10502991;28;20107;-77
2022/04/19 12:09:17;;;;;;;5.18;3.00;;;;;;;;;;10484439;28;20095;-79
2022/04/19 12:14:24;;;;;;;4.40;3.22;;;;;;;;;;10503378;28;20029;-79
2022/04/19 12:19:36;;;;;;;4.47;2.83;;;;;;;;;;10524551;28;20028;-78
2022/04/19 12:24:44;;;;;;;8.52;4.10;;;;;;;;;;10486198;28;20473;-76
2022/04/19 12:30:02;;;;;;;5.32;2.95;;;;;;;;;;10484378;28;20077;-77
2022/04/19 12:35:09;;;;;;;5.97;3.03;;;;;;;;;;10512352;28;20032;-81
2022/04/19 12:40:10;;;;;;;4.90;2.22;;;;;;;;;;10515576;28;20020;-81
2022/04/19 12:45:13;;;;;;;4.53;2.53;;;;;;;;;;10499175;28;20032;-82
2022/04/19 12:50:15;;;;;;;2.90;2.10;;;;;;;;;;10504925;28;20024;-80
2022/04/19 12:55:16;;;;;;;4.30;3.03;;;;;;;;;;10495707;28;20320;-81
2022/04/19 13:00:17;;;;;;;4.22;3.10;;;;;;;;;;10513330;28;20052;-81
2022/04/19 13:05:18;;;;;;;3.35;2.47;;;;;;;;;;10512791;28;20024;-82
2022/04/19 13:12:16;;;;;;;3.05;2.40;;;;;;;;;;10495131;28;20104;-81
2022/04/19 13:15:43;;;;;;;2.58;2.30;;;;;;;;;;10520685;28;20028;-80
2022/04/19 13:20:44;;;;;;;3.13;2.70;;;;;;;;;;10511773;28;20100;-81
2022/04/19 13:25:45;;;;;;;5.43;3.38;;;;;;;;;;10493871;28;20025;-81
2022/04/19 13:30:46;;;;;;;7.38;4.32;;;;;;;;;;10494011;28;20482;-79
2022/04/19 13:35:47;;;;;;;3.38;2.35;;;;;;;;;;10494494;28;20028;-82
2022/04/19 13:40:48;;;;;;;3.10;2.65;;;;;;;;;;10506674;28;20040;-80
2022/04/19 13:45:49;;;;;;;6.28;2.35;;;;;;;;;;10501531;28;20127;-79
2022/04/19 13:50:51;;;;;;;4.05;2.50;;;;;;;;;;10502348;28;20033;-80
2022/04/19 13:55:52;;;;;;;3.72;2.90;;;;;;;;;;10493684;28;20050;-80
2022/04/19 14:00:54;;;;;;;3.55;2.40;;;;;;;;;;10493405;28;20028;-81
2022/04/19 14:05:55;;;;;;;3.88;1.98;;;;;;;;;;10493335;28;20027;-80
2022/04/19 14:10:58;;;;;;;2.90;2.08;;;;;;;;;;10527900;28;20028;-80
2022/04/19 14:15:59;;;;;;;6.50;3.95;;;;;;;;;;10493038;28;20013;-81
2022/04/19 14:21:00;;;;;;;2.63;2.10;;;;;;;;;;10514450;28;20088;-81
2022/04/19 14:26:01;;;;;;;2.83;2.10;;;;;;;;;;10507872;28;20111;-80
2022/04/19 14:36:23;;;;;;;11.27;8.20;;;;;;;;;;10517805;28;20025;-80
2022/04/19 14:41:25;;;;;;;3.83;2.17;;;;;;;;;;10499293;28;20033;-80
2022/04/19 14:46:26;;;;;;;4.00;2.60;;;;;;;;;;10500270;28;20163;-80
2022/04/19 14:56:47;;;;;;;6.93;3.13;;;;;;;;;;10523554;28;20025;-81
2022/04/19 15:01:48;;;;;;;11.27;5.72;;;;;;;;;;10502491;28;20323;-80
2022/04/19 15:06:49;;;;;;;4.57;3.17;;;;;;;;;;10521053;28;20056;-80
2022/04/19 15:11:54;;;;;;;5.57;3.00;;;;;;;;;;10518550;28;20052;-81
2022/04/19 15:16:55;;;;;;;5.22;3.47;;;;;;;;;;10498373;28;20028;-81
2022/04/19 15:21:56;;;;;;;6.72;4.20;;;;;;;;;;10499952;28;20028;-80
2022/04/19 15:26:57;;;;;;;5.13;3.53;;;;;;;;;;10496823;28;20097;-80
2022/04/19 15:32:09;;;;;;;8.15;3.60;;;;;;;;;;10539557;22;20100;-83
2022/04/19 15:37:17;;;;;;;4.80;2.97;;;;;;;;;;10558540;28;20058;-83
2022/04/19 15:42:18;;;;;;;9.90;3.33;;;;;;;;;;10556790;28;20031;-83
2022/04/19 15:47:20;;;;;;;5.40;2.95;;;;;;;;;;10557727;28;20389;-80
2022/04/19 15:52:21;;;;;;;4.85;3.70;;;;;;;;;;10541378;28;20425;-81
2022/04/19 15:57:22;;;;;;;3.90;3.00;;;;;;;;;;10535927;28;20026;-81
2022/04/19 16:02:23;;;;;;;5.50;2.47;;;;;;;;;;10535675;28;20028;-82
2022/04/19 16:07:24;;;;;;;6.47;3.20;;;;;;;;;;10536064;28;20024;-83
2022/04/19 16:12:33;;;;;;;3.80;2.60;;;;;;;;;;10532074;28;20031;-83
2022/04/19 16:28:13;;;;;;;6.50;2.88;;;;;;;;;;10550611;28;20035;-87
2022/04/19 16:33:16;;;;;;;7.35;2.60;;;;;;;;;;10536297;28;20028;-84
2022/04/19 16:38:20;;;;;;;3.92;2.83;;;;;;;;;;10554200;28;20026;-85
2022/04/19 16:43:22;;;;;;;2.67;2.22;;;;;;;;;;10549729;28;20064;-87
2022/04/19 16:48:23;;;;;;;5.72;2.30;;;;;;;;;;10537910;28;20116;-84
2022/04/19 16:53:24;;;;;;;4.85;2.10;;;;;;;;;;10538123;28;20123;-85
2022/04/19 16:58:26;;;;;;;6.78;2.33;;;;;;;;;;10537307;28;20077;-86
2022/04/19 17:08:46;;;;;;;2.92;2.20;;;;;;;;;;10557841;28;20032;-87
2022/04/19 17:13:47;;;;;;;3.83;2.75;;;;;;;;;;10541366;28;20516;-86
2022/04/19 17:18:48;;;;;;;4.00;2.67;;;;;;;;;;10533319;28;20050;-85
2022/04/19 17:23:49;;;;;;;2.90;2.33;;;;;;;;;;10535030;28;20031;-87
2022/04/19 17:28:50;;;;;;;4.82;2.50;;;;;;;;;;10534704;28;20114;-86
2022/04/19 17:33:53;;;;;;;4.18;2.95;;;;;;;;;;10533488;28;20477;-86
2022/04/19 17:38:56;;;;;;;7.80;3.25;;;;;;;;;;10538097;28;20020;-86
2022/04/19 17:43:57;;;;;;;3.92;3.00;;;;;;;;;;10537119;28;20048;-85
2022/04/19 17:48:58;;;;;;;5.05;3.10;;;;;;;;;;10534738;28;20024;-86
2022/04/19 17:59:19;;;;;;;3.47;2.70;;;;;;;;;;10566333;28;20028;-83
2022/04/19 18:04:20;;;;;;;3.90;3.20;;;;;;;;;;10574312;28;20015;-82
2022/04/19 18:09:22;;;;;;;3.65;2.58;;;;;;;;;;10556394;28;20394;-86
2022/04/19 18:14:23;;;;;;;3.95;2.72;;;;;;;;;;10536257;28;20024;-84
2022/04/19 18:19:27;;;;;;;3.53;2.65;;;;;;;;;;10536794;28;20035;-85
2022/04/19 18:29:48;;;;;;;3.25;2.95;;;;;;;;;;10547723;28;20048;-84
2022/04/19 18:34:49;;;;;;;3.78;2.53;;;;;;;;;;10536036;28;20040;-84
2022/04/19 18:39:52;;;;;;;3.20;2.58;;;;;;;;;;10556351;28;20107;-86
2022/04/19 18:44:52;;;;;;;4.38;2.28;;;;;;;;;;10533576;28;20507;-86
2022/04/19 18:49:53;;;;;;;3.13;2.40;;;;;;;;;;10541892;28;20051;-86
2022/04/19 18:54:54;;;;;;;2.90;1.40;;;;;;;;;;10539551;28;20039;-86
2022/04/19 18:59:55;;;;;;;1.98;1.60;;;;;;;;;;10538913;28;20059;-85
2022/04/19 19:04:57;;;;;;;1.90;1.40;;;;;;;;;;10533917;28;20035;-85
2022/04/19 19:09:58;;;;;;;4.25;2.22;;;;;;;;;;10537276;28;20016;-85
2022/04/19 19:14:59;;;;;;;3.25;2.70;;;;;;;;;;10540699;28;20472;-85
2022/04/19 19:20:00;;;;;;;2.17;1.65;;;;;;;;;;10543284;28;20024;-84
2022/04/19 19:25:01;;;;;;;1.77;1.05;;;;;;;;;;10541414;28;20039;-86
